Terminal Aerodrome Forecast
Issued by NWS

Home | Current Version | Previous Version | Text Only | Print | Product List | Glossary On
Versions: 1 2 3 4 5 6 7 8 9 10 11 12 13
000
FTUS45 KREV 271840 RRA
TAFTVL
TAF
KTVL 271840Z 2719/2818 05008KT P6SM SCT070
     FM272100 18008KT P6SM VCSH FEW070
     FM280200 VRB03KT P6SM SCT080=

USA.gov is the U.S. government's official web portal to all federal, state and local government web resources and services.